createdAt,value
2017-05-30T00:02:08.414Z,22.40
2017-05-30T00:04:37.214Z,22.10
2017-05-30T00:07:05.561Z,22.10
2017-05-30T00:09:33.792Z,21.90
2017-05-30T00:12:02.033Z,21.80
2017-05-30T00:14:30.305Z,21.80
2017-05-30T00:16:58.541Z,21.70
2017-05-30T00:19:26.773Z,21.60
2017-05-30T00:21:55.029Z,21.70
2017-05-30T00:24:23.265Z,21.70
2017-05-30T00:26:51.541Z,21.70
2017-05-30T00:29:19.777Z,21.70
2017-05-30T00:31:48.009Z,21.60
2017-05-30T00:34:16.267Z,21.50
2017-05-30T00:36:44.502Z,21.60
2017-05-30T00:39:12.786Z,21.50
2017-05-30T00:41:41.014Z,21.50
2017-05-30T00:44:09.289Z,21.50
2017-05-30T00:46:37.525Z,21.50
2017-05-30T00:49:05.757Z,21.50
2017-05-30T00:51:34.021Z,21.50
2017-05-30T00:54:02.254Z,21.60
2017-05-30T00:56:30.485Z,21.60
2017-05-30T00:58:58.849Z,21.60
2017-05-30T01:01:27.065Z,21.50
2017-05-30T01:03:55.309Z,21.50
2017-05-30T01:06:23.569Z,21.50
2017-05-30T01:08:51.826Z,21.50
2017-05-30T01:11:20.063Z,21.50
2017-05-30T01:13:48.319Z,21.40
2017-05-30T01:16:16.593Z,21.30
2017-05-30T01:18:44.831Z,21.30
2017-05-30T01:21:13.061Z,21.30
2017-05-30T01:23:41.349Z,21.30
2017-05-30T01:26:09.570Z,21.30
2017-05-30T01:28:37.804Z,21.40
2017-05-30T01:31:06.057Z,21.40
2017-05-30T01:33:34.290Z,21.50
2017-05-30T01:36:02.589Z,21.60
2017-05-30T01:38:30.826Z,21.60
2017-05-30T01:40:59.057Z,21.50
2017-05-30T01:43:27.331Z,21.50
2017-05-30T01:45:55.561Z,21.60
2017-05-30T01:48:23.796Z,21.50
2017-05-30T01:50:52.045Z,21.60
2017-05-30T01:53:20.317Z,21.60
2017-05-30T01:55:48.549Z,21.60
2017-05-30T01:58:16.781Z,21.70
2017-05-30T02:00:45.030Z,21.60
2017-05-30T02:03:13.294Z,21.60
2017-05-30T02:05:41.529Z,21.70
2017-05-30T02:08:09.761Z,21.70
2017-05-30T02:10:38.021Z,21.60
2017-05-30T02:13:06.265Z,21.70
2017-05-30T02:15:34.505Z,21.70
2017-05-30T02:18:02.754Z,21.70
2017-05-30T02:20:31.381Z,21.60
2017-05-30T02:22:59.622Z,21.70
2017-05-30T02:25:27.858Z,21.70
2017-05-30T02:27:56.117Z,21.70
2017-05-30T02:30:24.353Z,21.60
2017-05-30T02:32:52.622Z,21.60
2017-05-30T02:35:20.873Z,21.70
2017-05-30T02:37:49.105Z,21.60
2017-05-30T02:40:17.361Z,21.60
2017-05-30T02:42:45.609Z,21.50
2017-05-30T02:45:13.847Z,21.40
2017-05-30T02:47:42.102Z,21.40
2017-05-30T02:50:10.362Z,21.30
2017-05-30T02:52:38.597Z,21.20
2017-05-30T02:55:06.833Z,21.30
2017-05-30T02:57:35.084Z,21.20
2017-05-30T03:00:03.333Z,21.20
2017-05-30T03:02:31.601Z,21.20
2017-05-30T03:04:59.829Z,21.20
2017-05-30T03:07:28.061Z,21.20
2017-05-30T03:09:56.318Z,21.20
2017-05-30T03:12:24.557Z,21.30
2017-05-30T03:14:52.789Z,21.30
2017-05-30T03:17:21.053Z,21.40
2017-05-30T03:19:49.285Z,21.30
2017-05-30T03:22:17.520Z,21.30
2017-05-30T03:24:46.697Z,21.30
2017-05-30T03:27:14.933Z,21.30
2017-05-30T03:29:43.169Z,21.20
2017-05-30T03:32:11.421Z,21.10
2017-05-30T03:34:39.657Z,21.00
2017-05-30T03:37:07.912Z,21.00
2017-05-30T03:39:36.165Z,21.00
2017-05-30T03:42:04.425Z,20.90
2017-05-30T03:44:32.662Z,21.10
2017-05-30T03:47:00.900Z,21.20
2017-05-30T03:49:29.173Z,21.20
2017-05-30T03:51:57.405Z,21.10
2017-05-30T03:54:25.641Z,21.00
2017-05-30T03:56:54.854Z,21.00
2017-05-30T03:59:23.086Z,21.00
2017-05-30T04:01:51.322Z,21.10
2017-05-30T04:04:19.586Z,21.10
2017-05-30T04:06:47.817Z,21.00
2017-05-30T04:09:16.050Z,21.00
2017-05-30T04:11:44.305Z,21.00
2017-05-30T04:14:12.561Z,21.10
2017-05-30T04:16:40.797Z,21.10
2017-05-30T04:19:09.028Z,21.10
2017-05-30T04:21:37.293Z,21.10
2017-05-30T04:24:05.528Z,21.10
2017-05-30T04:26:33.761Z,21.10
2017-05-30T04:29:02.017Z,21.20
2017-05-30T04:31:30.257Z,21.20
2017-05-30T04:33:58.485Z,21.30
2017-05-30T04:36:26.760Z,21.30
2017-05-30T04:38:55.482Z,21.30
2017-05-30T04:41:23.793Z,21.30
2017-05-30T04:43:52.045Z,21.50
2017-05-30T04:46:20.782Z,21.60
2017-05-30T04:48:49.610Z,21.70
2017-05-30T04:51:18.418Z,21.80
2017-05-30T04:53:47.223Z,21.80
2017-05-30T04:56:16.055Z,21.90
2017-05-30T04:58:44.853Z,22.00
2017-05-30T05:01:13.645Z,22.00
2017-05-30T05:03:42.469Z,22.10
2017-05-30T05:06:11.294Z,22.40
2017-05-30T05:08:40.102Z,22.60
2017-05-30T05:11:08.911Z,22.60
2017-05-30T05:13:37.746Z,22.80
2017-05-30T05:16:06.590Z,23.00
2017-05-30T05:18:35.581Z,23.10
2017-05-30T05:21:04.426Z,23.00
2017-05-30T05:23:33.234Z,23.00
2017-05-30T05:26:02.055Z,22.90
2017-05-30T05:28:30.862Z,23.00
2017-05-30T05:30:59.679Z,23.00
2017-05-30T05:33:28.501Z,23.00
2017-05-30T05:35:57.331Z,22.90
2017-05-30T05:38:26.137Z,22.90
2017-05-30T05:40:54.944Z,22.90
2017-05-30T05:43:23.758Z,23.00
2017-05-30T05:45:52.593Z,23.20
2017-05-30T05:48:21.442Z,23.50
2017-05-30T05:50:50.246Z,23.70
2017-05-30T05:53:19.050Z,23.70
2017-05-30T05:55:47.898Z,23.70
2017-05-30T05:58:16.702Z,23.80
2017-05-30T06:00:45.506Z,24.00
2017-05-30T06:03:14.322Z,24.00
2017-05-30T06:05:43.130Z,24.00
2017-05-30T06:08:11.978Z,24.00
2017-05-30T06:10:40.782Z,24.00
2017-05-30T06:13:09.590Z,23.80
2017-05-30T06:15:38.410Z,23.80
2017-05-30T06:18:07.241Z,23.80
2017-05-30T06:20:36.053Z,23.80
2017-05-30T06:23:04.865Z,23.80
2017-05-30T06:25:33.681Z,23.80
2017-05-30T06:28:02.490Z,24.00
2017-05-30T06:30:31.306Z,24.10
2017-05-30T06:33:00.109Z,24.30
2017-05-30T06:35:28.956Z,24.30
2017-05-30T06:37:57.794Z,24.30
2017-05-30T06:40:26.602Z,24.30
2017-05-30T06:42:55.437Z,24.20
2017-05-30T06:45:25.058Z,24.10
2017-05-30T06:47:53.897Z,24.10
2017-05-30T06:50:22.711Z,24.20
2017-05-30T06:52:51.523Z,24.30
2017-05-30T06:55:20.366Z,24.20
2017-05-30T06:57:49.181Z,24.10
2017-05-30T07:00:18.003Z,24.00
2017-05-30T07:02:46.846Z,24.00
2017-05-30T07:05:15.658Z,24.00
2017-05-30T07:07:44.485Z,24.00
2017-05-30T07:10:13.329Z,23.90
2017-05-30T07:12:42.143Z,23.80
2017-05-30T07:15:10.959Z,23.90
2017-05-30T07:17:39.837Z,23.90
2017-05-30T07:20:08.654Z,23.90
2017-05-30T07:22:38.185Z,23.90
2017-05-30T07:25:06.998Z,24.00
2017-05-30T07:27:35.826Z,24.00
2017-05-30T07:30:04.665Z,24.30
2017-05-30T07:32:33.477Z,24.70
2017-05-30T07:35:02.298Z,25.10
2017-05-30T07:37:31.142Z,25.20
2017-05-30T07:39:59.962Z,25.10
2017-05-30T07:42:28.769Z,25.30
2017-05-30T07:44:57.599Z,25.10
2017-05-30T07:47:26.431Z,24.90
2017-05-30T07:49:55.266Z,24.80
2017-05-30T07:52:24.083Z,24.80
2017-05-30T07:54:52.915Z,24.80
2017-05-30T07:57:21.762Z,25.00
2017-05-30T07:59:50.581Z,25.20
2017-05-30T08:02:19.410Z,25.30
2017-05-30T08:04:48.265Z,25.50
2017-05-30T08:07:17.082Z,25.70
2017-05-30T08:09:45.898Z,26.10
2017-05-30T08:12:14.738Z,26.40
2017-05-30T08:14:43.555Z,26.70
2017-05-30T08:17:12.765Z,26.90
2017-05-30T08:19:41.082Z,27.00
2017-05-30T08:22:09.814Z,27.30
2017-05-30T08:24:38.145Z,27.40
2017-05-30T08:27:06.880Z,27.80
2017-05-30T08:29:35.237Z,28.10
2017-05-30T08:32:03.970Z,28.00
2017-05-30T08:34:32.785Z,28.50
2017-05-30T08:37:01.630Z,28.60
2017-05-30T08:39:30.442Z,28.50
2017-05-30T08:41:59.270Z,28.40
2017-05-30T08:44:28.106Z,28.10
2017-05-30T08:46:56.917Z,28.10
2017-05-30T08:49:25.754Z,28.20
2017-05-30T08:51:54.574Z,28.70
2017-05-30T08:54:23.406Z,29.30
2017-05-30T08:56:52.237Z,29.50
2017-05-30T08:59:21.177Z,30.00
2017-05-30T09:01:50.024Z,30.10
2017-05-30T09:04:18.837Z,30.00
2017-05-30T09:06:47.676Z,29.90
2017-05-30T09:09:16.518Z,29.60
2017-05-30T09:11:45.333Z,29.60
2017-05-30T09:14:14.152Z,29.30
2017-05-30T09:16:42.485Z,28.90
2017-05-30T09:19:10.717Z,28.70
2017-05-30T09:21:38.993Z,28.30
2017-05-30T09:24:07.233Z,28.70
2017-05-30T09:26:35.465Z,28.90
2017-05-30T09:29:03.755Z,28.80
2017-05-30T09:31:31.985Z,28.70
2017-05-30T09:34:00.220Z,28.60
2017-05-30T09:36:28.977Z,28.90
2017-05-30T09:38:57.799Z,29.30
2017-05-30T09:41:26.122Z,29.70
2017-05-30T09:43:54.880Z,29.80
2017-05-30T09:46:23.693Z,30.20
2017-05-30T09:48:52.514Z,30.50
2017-05-30T09:51:21.360Z,30.30
2017-05-30T09:53:50.181Z,30.50
2017-05-30T09:56:19.032Z,30.00
2017-05-30T09:58:47.846Z,30.70
2017-05-30T10:01:16.666Z,30.80
2017-05-30T10:03:45.473Z,31.20
2017-05-30T10:06:14.302Z,31.10
2017-05-30T10:08:42.799Z,31.60
2017-05-30T10:11:11.522Z,31.60
2017-05-30T10:13:40.338Z,31.70
2017-05-30T10:16:09.186Z,31.90
2017-05-30T10:18:37.504Z,32.50
2017-05-30T10:21:05.741Z,32.80
2017-05-30T10:23:34.001Z,32.80
2017-05-30T10:26:02.962Z,33.00
2017-05-30T10:28:31.773Z,32.80
2017-05-30T10:31:00.682Z,32.50
2017-05-30T10:33:29.670Z,32.70
2017-05-30T10:35:58.481Z,32.50
2017-05-30T10:38:27.295Z,32.70
2017-05-30T10:40:56.130Z,32.80
2017-05-30T10:43:24.946Z,32.60
2017-05-30T10:45:53.764Z,32.80
2017-05-30T10:48:22.601Z,33.30
2017-05-30T10:50:50.913Z,33.60
2017-05-30T10:53:19.152Z,34.40
2017-05-30T10:55:47.417Z,34.70
2017-05-30T10:58:16.142Z,34.80
2017-05-30T11:00:45.065Z,35.00
2017-05-30T11:03:13.901Z,35.10
2017-05-30T11:05:42.706Z,35.20
2017-05-30T11:08:11.510Z,34.70
2017-05-30T11:10:39.844Z,33.50
2017-05-30T11:13:08.101Z,31.30
2017-05-30T11:15:36.338Z,28.90
2017-05-30T11:18:04.573Z,26.90
2017-05-30T11:20:32.829Z,25.20
2017-05-30T11:23:01.132Z,24.30
2017-05-30T11:25:29.366Z,23.20
2017-05-30T11:27:58.117Z,22.50
2017-05-30T11:30:26.967Z,22.20
2017-05-30T11:32:55.770Z,22.10
2017-05-30T11:35:24.573Z,22.00
2017-05-30T11:37:53.405Z,22.10
2017-05-30T11:40:22.213Z,22.30
2017-05-30T11:42:51.022Z,22.50
2017-05-30T11:45:19.856Z,22.50
2017-05-30T11:47:48.175Z,22.50
2017-05-30T11:50:16.410Z,22.50
2017-05-30T11:52:44.712Z,22.40
2017-05-30T11:55:12.945Z,22.20
2017-05-30T11:57:41.549Z,21.70
2017-05-30T12:00:09.845Z,21.40
2017-05-30T12:02:38.082Z,21.30
2017-05-30T12:05:06.322Z,21.30
2017-05-30T12:07:34.569Z,21.30
2017-05-30T12:10:02.824Z,21.40
2017-05-30T12:12:31.069Z,21.50
2017-05-30T12:14:59.830Z,21.50
2017-05-30T12:17:28.141Z,21.50
2017-05-30T12:19:56.377Z,21.50
2017-05-30T12:22:24.665Z,21.40
2017-05-30T12:24:52.901Z,21.30
2017-05-30T12:27:21.137Z,21.20
2017-05-30T12:29:49.393Z,21.20
2017-05-30T12:32:17.625Z,21.30
2017-05-30T12:34:45.861Z,21.40
2017-05-30T12:37:14.204Z,21.60
2017-05-30T12:39:42.436Z,21.70
2017-05-30T12:42:10.738Z,21.70
2017-05-30T12:44:38.989Z,21.80
2017-05-30T12:47:07.224Z,21.70
2017-05-30T12:49:35.457Z,21.90
2017-05-30T12:52:03.728Z,22.00
2017-05-30T12:54:31.968Z,22.10
2017-05-30T12:57:00.197Z,22.30
2017-05-30T12:59:28.949Z,22.50
2017-05-30T13:01:57.264Z,22.70
2017-05-30T13:04:25.966Z,22.90
2017-05-30T13:06:54.428Z,22.90
2017-05-30T13:09:23.129Z,23.00
2017-05-30T13:11:51.445Z,23.00
2017-05-30T13:14:19.705Z,22.80
2017-05-30T13:16:48.433Z,22.70
2017-05-30T13:19:17.266Z,22.50
2017-05-30T13:21:45.601Z,22.40
2017-05-30T13:24:13.834Z,22.30
2017-05-30T13:26:42.082Z,22.50
2017-05-30T13:29:10.317Z,22.60
2017-05-30T13:31:39.069Z,23.40
2017-05-30T13:34:07.878Z,25.10
2017-05-30T13:36:36.197Z,26.60
2017-05-30T13:39:04.500Z,27.50
2017-05-30T13:41:33.222Z,28.30
2017-05-30T13:44:02.025Z,28.40
2017-05-30T13:46:30.846Z,29.10
2017-05-30T13:48:59.685Z,29.10
2017-05-30T13:51:28.494Z,29.40
2017-05-30T13:53:57.298Z,29.80
2017-05-30T13:56:26.123Z,29.90
2017-05-30T13:58:54.456Z,29.00
2017-05-30T14:01:22.717Z,28.00
2017-05-30T14:03:50.954Z,26.90
2017-05-30T14:06:19.190Z,26.20
2017-05-30T14:08:47.437Z,25.70
2017-05-30T14:11:15.707Z,25.20
2017-05-30T14:13:43.940Z,24.80
2017-05-30T14:16:12.177Z,24.40
2017-05-30T14:18:40.437Z,24.40
2017-05-30T14:21:08.678Z,24.10
2017-05-30T14:23:36.913Z,24.00
2017-05-30T14:26:05.185Z,24.00
2017-05-30T14:28:33.421Z,24.00
2017-05-30T14:31:01.657Z,23.90
2017-05-30T14:33:29.904Z,24.90
2017-05-30T14:35:58.149Z,26.50
2017-05-30T14:38:26.894Z,27.70
2017-05-30T14:40:55.701Z,28.60
2017-05-30T14:43:24.505Z,28.90
2017-05-30T14:45:53.337Z,29.00
2017-05-30T14:48:22.141Z,29.30
2017-05-30T14:50:50.952Z,29.30
2017-05-30T14:53:19.785Z,29.50
2017-05-30T14:55:48.602Z,29.60
2017-05-30T14:58:17.405Z,29.40
2017-05-30T15:00:46.277Z,29.40
2017-05-30T15:03:15.083Z,29.30
2017-05-30T15:05:43.896Z,29.80
2017-05-30T15:08:12.722Z,30.30
2017-05-30T15:10:41.529Z,30.70
2017-05-30T15:13:10.339Z,30.90
2017-05-30T15:15:39.174Z,30.80
2017-05-30T15:18:08.038Z,30.70
2017-05-30T15:20:36.845Z,30.50
2017-05-30T15:23:05.653Z,30.40
2017-05-30T15:25:34.485Z,30.60
2017-05-30T15:28:03.293Z,30.60
2017-05-30T15:30:32.102Z,30.80
2017-05-30T15:33:00.955Z,30.60
2017-05-30T15:35:29.750Z,30.30
2017-05-30T15:37:58.558Z,30.50
2017-05-30T15:40:27.390Z,30.70
2017-05-30T15:42:56.189Z,31.10
2017-05-30T15:45:24.997Z,31.50
2017-05-30T15:47:53.830Z,31.10
2017-05-30T15:50:22.146Z,30.40
2017-05-30T15:52:50.381Z,29.70
2017-05-30T15:55:18.649Z,29.20
2017-05-30T15:57:47.378Z,29.30
2017-05-30T16:00:15.694Z,29.30
2017-05-30T16:02:43.965Z,28.90
2017-05-30T16:05:12.201Z,28.70
2017-05-30T16:07:40.550Z,28.10
2017-05-30T16:10:08.801Z,27.50
2017-05-30T16:12:37.038Z,26.90
2017-05-30T16:15:05.301Z,26.50
2017-05-30T16:17:33.543Z,26.10
2017-05-30T16:20:01.777Z,25.70
2017-05-30T16:22:30.033Z,25.60
2017-05-30T16:24:58.273Z,25.30
2017-05-30T16:27:26.505Z,25.10
2017-05-30T16:29:54.769Z,25.00
2017-05-30T16:32:23.002Z,24.80
2017-05-30T16:34:51.242Z,24.60
2017-05-30T16:37:19.985Z,24.60
2017-05-30T16:39:48.785Z,24.40
2017-05-30T16:42:17.597Z,24.00
2017-05-30T16:44:46.445Z,23.80
2017-05-30T16:47:15.255Z,23.70
2017-05-30T16:49:44.069Z,23.60
2017-05-30T16:52:12.893Z,23.70
2017-05-30T16:54:41.731Z,23.80
2017-05-30T16:57:10.554Z,24.00
2017-05-30T16:59:39.384Z,24.00
2017-05-30T17:02:08.194Z,24.10
2017-05-30T17:04:36.514Z,24.30
2017-05-30T17:07:04.745Z,24.40
2017-05-30T17:09:33.013Z,24.60
2017-05-30T17:12:01.253Z,24.70
2017-05-30T17:14:29.490Z,24.70
2017-05-30T17:16:57.819Z,24.60
2017-05-30T17:19:26.056Z,24.40
2017-05-30T17:21:54.321Z,24.20
2017-05-30T17:24:22.595Z,24.00
2017-05-30T17:26:50.896Z,23.70
2017-05-30T17:29:19.122Z,23.50
2017-05-30T17:31:47.385Z,23.60
2017-05-30T17:34:15.621Z,23.60
2017-05-30T17:36:43.863Z,23.80
2017-05-30T17:39:12.124Z,23.80
2017-05-30T17:41:40.370Z,23.80
2017-05-30T17:44:08.633Z,23.70
2017-05-30T17:46:36.886Z,23.70
2017-05-30T17:49:05.145Z,23.50
2017-05-30T17:51:33.386Z,23.40
2017-05-30T17:54:01.708Z,23.20
2017-05-30T17:56:29.981Z,23.10
2017-05-30T17:58:58.221Z,23.00
2017-05-30T18:01:26.457Z,22.90
2017-05-30T18:03:54.721Z,23.00
2017-05-30T18:06:22.958Z,22.90
2017-05-30T18:08:51.197Z,22.90
2017-05-30T18:11:19.449Z,22.90
2017-05-30T18:13:47.694Z,23.00
2017-05-30T18:16:15.931Z,23.10
2017-05-30T18:18:44.234Z,23.10
2017-05-30T18:21:12.469Z,23.00
2017-05-30T18:23:40.709Z,23.00
2017-05-30T18:26:08.969Z,23.00
2017-05-30T18:28:37.201Z,23.00
2017-05-30T18:31:05.437Z,23.00
2017-05-30T18:33:33.705Z,22.90
2017-05-30T18:36:01.947Z,22.90
2017-05-30T18:38:30.177Z,22.90
2017-05-30T18:40:58.469Z,22.80
2017-05-30T18:43:26.701Z,22.80
2017-05-30T18:45:54.941Z,22.80
2017-05-30T18:48:23.223Z,22.80
2017-05-30T18:50:51.459Z,22.80
2017-05-30T18:53:19.697Z,22.80
2017-05-30T18:55:48.925Z,22.70
2017-05-30T18:58:17.158Z,22.70
2017-05-30T19:00:45.399Z,22.70
2017-05-30T19:03:13.657Z,22.60
2017-05-30T19:05:41.918Z,22.60
2017-05-30T19:08:10.162Z,22.60
2017-05-30T19:10:38.400Z,22.40
2017-05-30T19:13:06.649Z,22.40
2017-05-30T19:15:34.962Z,22.30
2017-05-30T19:18:03.229Z,22.20
2017-05-30T19:20:31.469Z,22.10
2017-05-30T19:22:59.704Z,22.10
2017-05-30T19:25:27.961Z,22.00
2017-05-30T19:27:56.190Z,22.00
2017-05-30T19:30:24.449Z,21.90
2017-05-30T19:32:52.681Z,22.00
2017-05-30T19:35:20.954Z,21.80
2017-05-30T19:37:49.245Z,21.80
2017-05-30T19:40:17.482Z,21.70
2017-05-30T19:42:45.729Z,21.70
2017-05-30T19:45:14.053Z,21.50
2017-05-30T19:47:42.293Z,21.50
2017-05-30T19:50:10.627Z,21.40
2017-05-30T19:52:38.857Z,21.30
2017-05-30T19:55:07.099Z,21.30
2017-05-30T19:57:35.365Z,21.30
2017-05-30T20:00:04.090Z,21.40
2017-05-30T20:02:32.897Z,21.40
2017-05-30T20:05:01.730Z,21.30
2017-05-30T20:07:30.509Z,21.30
2017-05-30T20:09:58.827Z,21.30
2017-05-30T20:12:27.077Z,21.30
2017-05-30T20:14:55.337Z,21.20
2017-05-30T20:17:23.574Z,21.30
2017-05-30T20:19:51.812Z,21.40
2017-05-30T20:22:20.072Z,21.30
2017-05-30T20:24:48.367Z,21.40
2017-05-30T20:27:16.601Z,21.40
2017-05-30T20:29:44.849Z,21.40
2017-05-30T20:32:13.159Z,21.30
2017-05-30T20:34:41.390Z,21.30
2017-05-30T20:37:09.665Z,21.30
2017-05-30T20:39:37.897Z,21.30
2017-05-30T20:42:06.144Z,21.30
2017-05-30T20:44:34.405Z,21.10
2017-05-30T20:47:02.647Z,21.20
2017-05-30T20:49:30.877Z,21.10
2017-05-30T20:51:59.150Z,21.10
2017-05-30T20:54:27.387Z,21.00
2017-05-30T20:56:55.620Z,21.00
2017-05-30T20:59:23.874Z,20.80
2017-05-30T21:01:52.130Z,20.60
2017-05-30T21:04:20.381Z,20.50
2017-05-30T21:06:48.618Z,20.40
2017-05-30T21:09:16.861Z,20.40
2017-05-30T21:11:45.145Z,20.30
2017-05-30T21:14:13.383Z,20.20
2017-05-30T21:16:41.629Z,20.20
2017-05-30T21:19:09.892Z,20.10
2017-05-30T21:21:38.126Z,20.00
2017-05-30T21:24:06.361Z,20.00
2017-05-30T21:26:34.626Z,19.90
2017-05-30T21:29:02.865Z,19.90
2017-05-30T21:31:31.096Z,19.90
2017-05-30T21:33:59.358Z,19.90
2017-05-30T21:36:27.665Z,19.80
2017-05-30T21:38:55.900Z,19.60
2017-05-30T21:41:24.162Z,19.40
2017-05-30T21:43:52.397Z,19.40
2017-05-30T21:46:20.629Z,19.30
2017-05-30T21:48:48.890Z,19.20
2017-05-30T21:51:17.134Z,19.20
2017-05-30T21:53:45.389Z,19.10
2017-05-30T21:56:13.629Z,19.00
2017-05-30T21:58:41.901Z,18.90
2017-05-30T22:01:10.125Z,18.90
2017-05-30T22:03:38.365Z,18.90
2017-05-30T22:06:06.621Z,18.80
2017-05-30T22:08:34.869Z,18.80
2017-05-30T22:11:03.129Z,18.80
2017-05-30T22:13:31.362Z,18.80
2017-05-30T22:15:59.621Z,18.80
2017-05-30T22:18:27.858Z,18.70
2017-05-30T22:20:56.089Z,18.60
2017-05-30T22:23:24.386Z,18.70
2017-05-30T22:25:52.625Z,18.70
2017-05-30T22:28:20.857Z,18.70
2017-05-30T22:30:49.125Z,18.60
2017-05-30T22:33:17.850Z,18.60
2017-05-30T22:35:46.650Z,18.50
2017-05-30T22:38:15.001Z,18.50
2017-05-30T22:40:43.233Z,18.50
2017-05-30T22:43:11.464Z,18.50
2017-05-30T22:45:39.757Z,18.50
2017-05-30T22:48:07.990Z,18.50
2017-05-30T22:50:36.717Z,18.40
2017-05-30T22:53:05.549Z,18.50
2017-05-30T22:55:33.861Z,18.50
2017-05-30T22:58:02.093Z,18.50
2017-05-30T23:00:30.354Z,18.40
2017-05-30T23:02:58.604Z,18.30
2017-05-30T23:05:26.846Z,18.30
2017-05-30T23:07:55.082Z,18.30
2017-05-30T23:10:23.822Z,18.20
2017-05-30T23:12:52.653Z,18.20
2017-05-30T23:15:21.461Z,18.20
2017-05-30T23:17:50.264Z,18.20
2017-05-30T23:20:19.087Z,18.20
2017-05-30T23:22:47.892Z,18.10
2017-05-30T23:25:16.717Z,18.10
2017-05-30T23:27:45.033Z,18.10
2017-05-30T23:30:13.280Z,18.00
2017-05-30T23:32:41.550Z,18.10
2017-05-30T23:35:09.781Z,18.00
2017-05-30T23:37:38.021Z,18.10
2017-05-30T23:40:06.334Z,18.00
2017-05-30T23:42:34.550Z,18.00
2017-05-30T23:45:02.790Z,18.00
2017-05-30T23:47:31.041Z,18.00
2017-05-30T23:49:59.273Z,18.00
2017-05-30T23:52:27.541Z,17.90
2017-05-30T23:54:55.774Z,17.90
2017-05-30T23:57:24.109Z,17.90
2017-05-30T23:59:52.365Z,17.90
